Time;durP1;ratioP1;P1;durP2;ratioP2;P2;SDS_P1;SDS_P2;PMS_P1;PMS_P2;Temp;Humidity;BMP_temperature;BMP_pressure;BME280_temperature;BME280_humidity;BME280_pressure;Samples;Min_cycle;Max_cycle;Signal;HPM_P1;HPM_P2
2022/04/22 00:02:17;;;;;;;72.78;43.08;;;;;;;9.14;71.88;99846.12;2050762;86;32009;-64
2022/04/22 00:05:23;;;;;;;78.30;47.80;;;;;;;9.12;71.94;99843.51;2051257;86;33063;-63
2022/04/22 00:08:32;;;;;;;69.45;40.45;;;;;;;9.09;72.01;99850.37;2051350;86;29338;-64
2022/04/22 00:11:40;;;;;;;72.20;42.78;;;;;;;9.07;71.94;99840.22;2050998;86;27912;-64
2022/04/22 00:14:46;;;;;;;66.77;41.65;;;;;;;9.05;71.95;99838.10;2050760;86;28765;-63
2022/04/22 00:17:51;;;;;;;70.83;43.70;;;;;;;9.03;72.07;99831.97;2050256;86;31056;-64
2022/04/22 00:20:56;;;;;;;73.55;45.90;;;;;;;9.02;72.13;99832.42;2049658;86;32966;-64
2022/04/22 00:24:01;;;;;;;81.20;49.40;;;;;;;8.99;72.21;99819.24;2049398;86;29329;-63
2022/04/22 00:27:05;;;;;;;78.05;45.75;;;;;;;8.96;72.34;99812.23;2049501;86;37108;-64
2022/04/22 00:30:12;;;;;;;74.80;46.05;;;;;;;8.95;72.37;99806.48;2049207;86;28703;-64
2022/04/22 00:33:18;;;;;;;79.00;47.53;;;;;;;8.95;72.50;99806.98;2048497;86;27985;-64
2022/04/22 00:36:26;;;;;;;83.53;49.77;;;;;;;8.93;72.55;99802.17;2049402;86;33121;-64
2022/04/22 00:39:30;;;;;;;77.40;49.80;;;;;;;8.91;72.66;99798.72;2048758;86;29340;-64
2022/04/22 00:42:36;;;;;;;88.40;52.10;;;;;;;8.90;72.68;99803.66;2050335;86;27975;-64
2022/04/22 00:45:43;;;;;;;92.57;53.65;;;;;;;8.90;72.76;99800.54;2050948;86;29087;-64
2022/04/22 00:48:48;;;;;;;;;;;;;;;8.90;72.79;99799.66;2053761;86;32615;-64
2022/04/22 00:51:58;;;;;;;82.53;50.90;;;;;;;8.90;72.79;99791.64;2050953;86;33018;-64
2022/04/22 00:55:06;;;;;;;89.62;51.92;;;;;;;8.88;72.83;99797.08;2050860;86;29711;-64
2022/04/22 00:58:10;;;;;;;85.32;50.70;;;;;;;8.89;72.85;99791.25;2050772;86;27712;-64
2022/04/22 01:01:15;;;;;;;80.22;48.75;;;;;;;8.90;72.84;99788.97;2051054;85;28663;-64
2022/04/22 01:11:23;;;;;;;94.83;53.95;;;;;;;8.87;72.76;99787.78;2050987;86;27974;-63
2022/04/22 01:14:37;;;;;;;92.60;53.28;;;;;;;8.85;72.89;99781.69;2051087;86;28026;-64
2022/04/22 01:17:45;;;;;;;80.25;47.60;;;;;;;8.83;72.87;99787.09;2050782;86;29897;-64
2022/04/22 01:20:54;;;;;;;86.78;52.60;;;;;;;8.83;72.90;99788.42;2032265;86;31044;-64
2022/04/22 01:24:03;;;;;;;83.25;50.98;;;;;;;8.83;72.90;99795.59;2050969;86;33010;-62
2022/04/22 01:27:13;;;;;;;86.92;49.93;;;;;;;8.81;72.94;99796.98;2051111;86;29331;-63
2022/04/22 01:30:24;;;;;;;85.10;51.25;;;;;;;8.80;72.98;99790.79;2051164;86;27859;-64
2022/04/22 01:33:31;;;;;;;88.80;51.80;;;;;;;8.79;73.07;99781.05;2051291;86;29339;-64
2022/04/22 01:36:41;;;;;;;86.67;50.28;;;;;;;8.78;73.14;99775.31;2051188;86;31067;-63
2022/04/22 01:39:54;;;;;;;92.97;53.75;;;;;;;8.79;73.15;99773.48;2050630;86;29529;-63
2022/04/22 01:43:04;;;;;;;88.00;50.58;;;;;;;8.77;73.21;99770.91;2051098;86;29374;-63
2022/04/22 01:46:09;;;;;;;85.77;50.60;;;;;;;8.77;73.22;99766.90;2051344;86;27876;-63
2022/04/22 01:49:20;;;;;;;79.45;48.10;;;;;;;8.75;73.34;99767.45;2051303;86;28751;-62
2022/04/22 01:52:26;;;;;;;77.80;49.40;;;;;;;8.74;73.37;99760.86;2051217;86;31193;-64
2022/04/22 01:55:34;;;;;;;74.40;46.90;;;;;;;8.75;73.40;99751.91;2051229;86;32944;-64
2022/04/22 01:58:43;;;;;;;72.72;45.43;;;;;;;8.77;73.40;99752.70;2053714;86;27989;-63
2022/04/22 02:01:50;;;;;;;;;;;;;;;8.78;73.43;99750.39;2053359;86;28013;-62
2022/04/22 02:04:59;;;;;;;76.02;46.33;;;;;;;8.78;73.39;99747.72;2050723;86;30049;-64
2022/04/22 02:08:04;;;;;;;;;;;;;;;8.75;73.40;99744.75;2053714;86;32179;-63
2022/04/22 02:11:10;;;;;;;77.67;48.00;;;;;;;8.73;73.49;99741.77;2051478;86;32958;-63
2022/04/22 02:14:15;;;;;;;70.90;45.15;;;;;;;8.71;73.64;99740.98;2051230;86;29369;-63
2022/04/22 02:17:25;;;;;;;73.22;46.75;;;;;;;8.70;73.65;99735.25;2051458;86;27766;-62
2022/04/22 02:20:36;;;;;;;70.72;43.78;;;;;;;8.71;73.65;99728.97;2051278;86;28530;-62
2022/04/22 02:23:43;;;;;;;74.17;46.53;;;;;;;8.71;73.66;99725.80;2051313;86;31060;-63
2022/04/22 02:30:19;;;;;;;76.65;46.40;;;;;;;8.71;73.84;99728.97;2050987;85;27987;-63
2022/04/22 02:33:29;;;;;;;79.85;50.38;;;;;;;8.69;73.90;99733.03;2050745;86;27934;-64
2022/04/22 02:36:41;;;;;;;92.90;51.33;;;;;;;8.68;73.95;99735.79;2049599;86;28815;-64
2022/04/22 02:39:50;;;;;;;96.82;54.60;;;;;;;8.63;74.00;99740.03;2050828;86;31059;-63
2022/04/22 02:46:19;;;;;;;92.05;54.77;;;;;;;8.58;74.15;99740.73;2050880;86;28275;-63
2022/04/22 02:49:26;;;;;;;88.58;54.63;;;;;;;8.54;74.29;99737.36;2051550;86;27715;-65
2022/04/22 02:52:36;;;;;;;94.47;56.45;;;;;;;8.52;74.34;99735.23;2051407;86;28652;-65
2022/04/22 02:55:43;;;;;;;87.27;53.35;;;;;;;8.55;74.38;99735.54;2051386;86;31163;-63
2022/04/22 02:58:53;;;;;;;90.53;53.38;;;;;;;8.55;74.43;99729.75;2051257;86;32971;-64
2022/04/22 03:01:59;;;;;;;87.35;50.78;;;;;;;8.57;74.46;99730.54;2032187;86;29313;-63
2022/04/22 03:05:06;;;;;;;91.97;53.52;;;;;;;8.60;74.46;99728.17;2032232;86;27965;-64
2022/04/22 03:08:11;;;;;;;91.42;53.58;;;;;;;8.60;74.44;99734.39;2051250;86;28688;-63
2022/04/22 03:11:21;;;;;;;90.32;53.73;;;;;;;8.61;74.47;99734.75;2050162;86;31022;-64
2022/04/22 03:14:25;;;;;;;90.22;54.48;;;;;;;8.58;74.49;99738.06;2049612;86;29135;-64
2022/04/22 03:17:36;;;;;;;86.78;52.50;;;;;;;8.56;74.58;99739.48;2050270;86;29330;-64
2022/04/22 03:20:45;;;;;;;84.47;52.15;;;;;;;8.55;74.55;99734.20;2051114;86;27950;-63
2022/04/22 03:23:50;;;;;;;83.22;51.10;;;;;;;8.56;74.66;99735.48;2051335;86;28799;-63
2022/04/22 03:26:56;;;;;;;85.72;52.50;;;;;;;8.58;74.66;99732.72;2051209;86;31085;-63
2022/04/22 03:30:06;;;;;;;92.22;53.13;;;;;;;8.61;74.62;99737.42;2051239;86;33559;-63
2022/04/22 03:33:17;;;;;;;85.67;52.08;;;;;;;8.62;74.55;99727.63;2050709;86;27857;-64
2022/04/22 03:36:23;;;;;;;88.70;52.17;;;;;;;8.64;74.55;99723.08;2051506;86;27838;-63
2022/04/22 03:39:32;;;;;;;;;;;;;;;8.64;74.52;99726.59;2053812;86;29652;-63
2022/04/22 03:42:42;;;;;;;83.58;52.50;;;;;;;8.66;74.55;99727.39;2051336;86;31188;-64
2022/04/22 03:45:58;;;;;;;78.33;49.63;;;;;;;8.66;74.56;99731.39;2051325;86;32973;-64
2022/04/22 03:49:09;;;;;;;85.32;50.65;;;;;;;8.69;74.59;99726.84;2051061;86;29387;-63
2022/04/22 03:52:15;;;;;;;89.47;52.35;;;;;;;8.70;74.61;99723.23;2051414;86;27881;-63
2022/04/22 03:55:20;;;;;;;99.10;58.08;;;;;;;8.69;74.60;99715.67;2050957;86;28700;-63
2022/04/22 03:58:24;;;;;;;119.28;65.25;;;;;;;8.70;74.64;99716.55;2051460;86;31027;-64
2022/04/22 04:01:33;;;;;;;86.02;50.03;;;;;;;8.72;74.67;99717.34;2051511;86;32970;-64
2022/04/22 04:04:41;;;;;;;120.65;67.35;;;;;;;8.72;74.68;99713.34;2053591;85;29369;-65
2022/04/22 04:07:44;;;;;;;;;;;;;;;8.69;74.70;99723.69;2056612;86;27846;-64
2022/04/22 04:17:42;;;;;;;99.85;56.50;;;;;;;8.63;74.84;99725.35;2053584;86;29730;-64
2022/04/22 04:23:54;;;;;;;94.45;56.10;;;;;;;8.60;75.00;99726.84;2035417;86;28014;-64
2022/04/22 04:26:59;;;;;;;;;;;;;;;8.59;75.04;99717.09;2037787;87;28674;-64
2022/04/22 04:30:04;;;;;;;95.60;55.70;;;;;;;8.59;75.10;99701.95;2035058;87;31069;-64
2022/04/22 04:33:09;;;;;;;100.72;56.58;;;;;;;8.62;75.13;99700.92;2035332;87;32962;-63
2022/04/22 04:36:17;;;;;;;101.47;62.03;;;;;;;8.66;75.17;99697.16;2035349;87;29325;-64
2022/04/22 04:39:27;;;;;;;92.70;55.70;;;;;;;8.71;75.21;99700.92;2035281;87;28050;-64
2022/04/22 04:42:32;;;;;;;107.27;60.43;;;;;;;8.75;75.22;99694.00;2035257;87;28668;-63
2022/04/22 04:45:46;;;;;;;99.58;59.27;;;;;;;8.81;75.20;99697.70;2035259;87;31220;-63
2022/04/22 04:48:51;;;;;;;99.15;57.53;;;;;;;8.86;75.23;99699.25;2035100;87;33040;-64
2022/04/22 04:51:58;;;;;;;104.63;61.40;;;;;;;8.91;75.24;99700.76;2035223;87;29324;-63
2022/04/22 04:55:08;;;;;;;107.50;60.95;;;;;;;8.96;75.14;99707.19;2035247;87;27933;-64
2022/04/22 04:58:14;;;;;;;100.27;60.73;;;;;;;8.99;75.13;99703.48;2035162;87;28648;-64
2022/04/22 05:01:25;;;;;;;103.22;60.80;;;;;;;9.00;75.03;99696.73;2044766;86;31010;-63
2022/04/22 05:04:33;;;;;;;99.30;58.58;;;;;;;9.03;75.03;99699.70;2051414;86;33077;-64
2022/04/22 05:07:59;;;;;;;88.52;56.90;;;;;;;9.04;75.04;99696.94;2051253;86;29414;-64
2022/04/22 05:11:02;;;;;;;93.72;54.42;;;;;;;9.05;74.97;99693.33;2002709;88;28109;-65
2022/04/22 05:14:07;;;;;;;101.62;56.08;;;;;;;9.06;74.96;99691.53;1987852;89;28669;-65
2022/04/22 05:17:12;;;;;;;99.00;56.73;;;;;;;9.09;75.01;99690.05;2004129;88;31029;-63
2022/04/22 05:20:18;;;;;;;91.57;52.00;;;;;;;9.13;75.05;99691.58;2003899;88;32941;-63
2022/04/22 05:23:22;;;;;;;88.25;52.83;;;;;;;9.18;75.04;99691.36;2003998;88;29326;-64
2022/04/22 05:26:27;;;;;;;63.33;39.00;;;;;;;9.22;75.05;99700.45;2003728;88;32002;-64
2022/04/22 05:33:00;;;;;;;93.10;52.60;;;;;;;9.35;75.03;99701.97;2003437;88;32405;-64
2022/04/22 05:36:09;;;;;;;85.47;52.78;;;;;;;9.46;74.95;99699.20;2003816;88;33011;-63
2022/04/22 05:39:17;;;;;;;83.50;50.08;;;;;;;9.56;75.01;99689.72;2003857;88;29339;-64
2022/04/22 05:42:22;;;;;;;83.67;50.90;;;;;;;9.69;74.91;99697.93;2003956;88;28105;-63
2022/04/22 05:45:32;;;;;;;86.92;50.10;;;;;;;9.81;74.77;99695.90;1987625;89;28661;-66
2022/04/22 05:48:40;;;;;;;79.22;48.78;;;;;;;9.94;74.65;99697.88;2045115;86;27910;-64
2022/04/22 05:51:44;;;;;;;89.32;50.12;;;;;;;10.03;74.43;99690.19;2027053;87;32988;-64
2022/04/22 05:54:49;;;;;;;76.70;46.88;;;;;;;10.15;74.29;99689.96;2048190;86;29393;-64
2022/04/22 05:57:53;;;;;;;82.17;48.70;;;;;;;10.26;74.01;99687.16;2012840;88;27977;-63
2022/04/22 06:00:58;;;;;;;73.27;48.43;;;;;;;10.36;74.00;99687.45;2027533;87;28677;-63
2022/04/22 06:04:03;;;;;;;;;;;;;;;10.51;74.08;99680.37;2050185;86;31596;-64
2022/04/22 06:07:09;;;;;;;73.55;46.28;;;;;;;10.63;73.59;99687.20;2048134;86;32986;-64
2022/04/22 06:10:33;;;;;;;73.87;47.13;;;;;;;10.61;73.17;99682.42;2014291;88;30935;-64
2022/04/22 06:13:47;;;;;;;71.65;45.90;;;;;;;10.70;73.27;99685.48;2047855;86;27864;-64
2022/04/22 06:16:52;;;;;;;74.42;47.88;;;;;;;10.78;73.05;99686.74;2013156;88;28664;-64
2022/04/22 06:20:02;;;;;;;75.57;47.73;;;;;;;10.89;73.06;99690.12;2031346;86;31032;-65
2022/04/22 06:23:13;;;;;;;75.12;48.85;;;;;;;11.02;73.12;99690.70;2030950;86;33539;-65
2022/04/22 06:26:20;;;;;;;79.12;46.95;;;;;;;11.17;73.12;99691.58;2047809;86;29329;-64
2022/04/22 06:29:25;;;;;;;70.95;47.33;;;;;;;11.25;72.85;99686.63;2013409;88;27898;-65
2022/04/22 06:32:31;;;;;;;;;;;;;;;11.37;72.54;99683.16;2033922;87;28683;-64
2022/04/22 06:35:37;;;;;;;69.15;48.28;;;;;;;11.42;72.24;99683.36;2047963;86;31072;-65
2022/04/22 06:38:43;;;;;;;77.58;50.60;;;;;;;11.46;72.08;99691.11;2014556;88;33051;-65
2022/04/22 06:48:49;;;;;;;77.50;51.25;;;;;;;11.50;71.82;99683.72;2047682;86;29165;-65
2022/04/22 06:52:01;;;;;;;75.87;51.45;;;;;;;11.61;71.69;99685.23;2013323;88;31178;-65
2022/04/22 06:55:13;;;;;;;76.57;49.85;;;;;;;11.66;71.57;99689.83;2031129;87;32968;-66
2022/04/22 06:58:20;;;;;;;69.40;46.83;;;;;;;11.64;71.25;99685.03;2048103;86;29966;-65
2022/04/22 07:01:31;;;;;;;72.80;48.35;;;;;;;11.73;71.40;99688.10;1991929;89;28021;-65
2022/04/22 07:04:39;;;;;;;76.40;46.73;;;;;;;11.83;71.51;99689.22;1979767;87;27934;-64
2022/04/22 07:07:43;;;;;;;66.83;45.83;;;;;;;12.03;71.21;99689.78;1973593;90;31078;-65
2022/04/22 07:10:55;;;;;;;73.67;47.27;;;;;;;12.18;70.55;99678.48;1973551;90;32999;-66
2022/04/22 07:14:04;;;;;;;70.80;46.08;;;;;;;12.28;70.44;99672.91;1973119;89;29381;-64
2022/04/22 07:17:13;;;;;;;73.15;47.93;;;;;;;12.40;70.08;99684.16;1973672;89;27961;-64
2022/04/22 07:20:23;;;;;;;67.85;43.68;;;;;;;12.49;69.54;99688.55;1973579;90;28659;-65
2022/04/22 07:23:31;;;;;;;69.90;46.37;;;;;;;12.58;67.93;99682.04;1973291;90;30936;-64
2022/04/22 07:26:39;;;;;;;69.67;46.42;;;;;;;12.70;68.15;99679.00;1973725;90;33036;-63
2022/04/22 07:29:48;;;;;;;69.82;48.55;;;;;;;12.88;68.12;99678.23;1973417;90;29319;-63
2022/04/22 07:32:55;;;;;;;61.95;42.62;;;;;;;13.11;68.06;99674.90;1973523;90;28021;-63
2022/04/22 07:36:00;;;;;;;56.95;41.45;;;;;;;13.32;67.34;99680.08;1973150;90;28732;-63
2022/04/22 07:39:11;;;;;;;52.20;36.08;;;;;;;13.74;67.38;99678.47;1973482;90;31042;-63
2022/04/22 07:42:20;;;;;;;43.02;32.15;;;;;;;14.09;66.49;99676.36;1973325;90;33035;-63
2022/04/22 07:48:58;;;;;;;36.35;26.05;;;;;;;14.73;65.44;99683.25;1973178;90;28006;-64
2022/04/22 07:52:03;;;;;;;33.73;24.02;;;;;;;14.94;63.02;99684.42;1973170;90;33190;-64
2022/04/22 07:55:10;;;;;;;32.95;24.20;;;;;;;14.93;63.12;99688.10;1973423;90;31048;-64
2022/04/22 07:58:15;;;;;;;31.48;23.77;;;;;;;14.94;63.32;99683.08;1973329;90;33096;-64
2022/04/22 08:01:18;;;;;;;27.93;20.92;;;;;;;15.26;63.74;99687.27;1973561;90;29329;-66
2022/04/22 08:04:25;;;;;;;32.73;21.95;;;;;;;15.62;62.14;99683.12;1973343;87;27986;-66
2022/04/22 08:07:31;;;;;;;26.75;20.37;;;;;;;15.72;61.63;99685.94;1973262;90;28725;-64
2022/04/22 08:10:36;;;;;;;23.45;19.15;;;;;;;15.80;60.08;99677.55;1973308;89;31005;-64
2022/04/22 08:13:42;;;;;;;21.65;17.73;;;;;;;15.82;59.63;99683.31;1972852;90;33590;-64
2022/04/22 08:16:46;;;;;;;22.62;16.65;;;;;;;15.96;59.51;99679.05;1973195;90;29322;-64
2022/04/22 08:19:51;;;;;;;17.50;15.37;;;;;;;15.99;58.74;99688.22;1981952;89;27937;-63
2022/04/22 08:22:55;;;;;;;;;;;;;;;16.11;57.25;99691.77;1983952;89;28654;-64
2022/04/22 08:25:59;;;;;;;20.02;15.65;;;;;;;16.15;58.05;99691.00;1973358;90;31068;-63
2022/04/22 08:29:05;;;;;;;21.07;15.43;;;;;;;15.87;56.94;99692.81;1972962;90;33028;-64
2022/04/22 08:32:11;;;;;;;20.23;15.03;;;;;;;15.74;57.41;99688.86;1973503;90;29333;-64
2022/04/22 08:35:16;;;;;;;20.72;16.27;;;;;;;15.71;56.52;99689.61;1973529;90;27952;-64
2022/04/22 08:38:20;;;;;;;;;;;;;;;15.56;56.67;99706.05;1975637;90;28724;-64
2022/04/22 08:41:27;;;;;;;21.62;14.85;;;;;;;15.56;56.45;99705.20;1973329;90;31056;-64
2022/04/22 08:44:35;;;;;;;18.80;14.90;;;;;;;15.54;55.55;99712.09;1972577;90;32976;-64
2022/04/22 08:51:04;;;;;;;19.92;15.60;;;;;;;15.18;55.94;99706.77;1972722;90;27850;-63
2022/04/22 08:54:12;;;;;;;21.07;15.10;;;;;;;14.91;56.73;99700.84;1973499;90;28669;-62
2022/04/22 08:57:18;;;;;;;18.37;15.53;;;;;;;14.73;56.93;99706.67;1960522;89;27985;-63
2022/04/22 09:00:24;;;;;;;21.17;15.58;;;;;;;14.63;57.00;99704.30;1960955;90;33187;-65
2022/04/22 09:03:33;;;;;;;21.68;16.75;;;;;;;14.50;57.50;99710.59;1960762;89;29402;-63
2022/04/22 09:06:47;;;;;;;23.42;15.45;;;;;;;14.28;56.73;99708.19;1973354;90;27425;-64
2022/04/22 09:09:51;;;;;;;20.50;16.48;;;;;;;14.12;57.36;99706.27;1973348;90;28713;-64
2022/04/22 09:12:57;;;;;;;21.30;16.35;;;;;;;13.96;57.63;99694.41;1973427;90;31037;-64
2022/04/22 09:16:02;;;;;;;18.92;15.72;;;;;;;13.83;57.63;99698.01;1973264;90;32947;-65
2022/04/22 09:19:11;;;;;;;18.20;14.93;;;;;;;13.65;57.82;99698.00;1973638;90;29331;-64
2022/04/22 09:22:26;;;;;;;18.40;12.88;;;;;;;13.43;58.26;99695.49;1973532;90;27863;-63
2022/04/22 09:25:33;;;;;;;15.05;12.35;;;;;;;13.43;58.08;99704.06;1973550;90;33930;-65
2022/04/22 09:28:44;;;;;;;17.27;12.53;;;;;;;13.51;58.43;99698.98;1960658;90;31038;-64
2022/04/22 09:31:52;;;;;;;18.12;11.63;;;;;;;13.56;58.43;99704.05;1973173;90;34175;-64
2022/04/22 09:35:16;;;;;;;15.80;11.73;;;;;;;13.55;58.06;99703.17;1973205;90;29352;-63
2022/04/22 09:45:18;;;;;;;17.02;12.20;;;;;;;13.20;58.28;99698.44;1973008;90;31779;-63
2022/04/22 09:48:24;;;;;;;14.85;12.65;;;;;;;13.02;58.58;99702.80;1973087;90;33078;-64
2022/04/22 09:51:34;;;;;;;16.95;12.70;;;;;;;12.94;58.69;99699.80;1973477;90;29377;-64
2022/04/22 09:54:40;;;;;;;14.98;12.55;;;;;;;12.81;58.98;99703.80;1973456;90;27855;-63
2022/04/22 09:57:57;;;;;;;17.75;12.73;;;;;;;12.71;59.23;99702.72;1973161;89;28732;-62
2022/04/22 10:01:06;;;;;;;15.15;12.68;;;;;;;12.63;59.41;99703.71;1973138;90;31096;-64
2022/04/22 10:04:12;;;;;;;20.37;13.13;;;;;;;12.52;59.67;99709.81;1974117;88;32996;-64
2022/04/22 10:07:18;;;;;;;;;;;;;;;12.45;59.94;99699.95;1993947;89;29371;-64
2022/04/22 10:10:36;;;;;;;17.48;12.93;;;;;;;12.47;60.04;99694.00;1991937;89;27983;-64
2022/04/22 10:13:47;;;;;;;17.80;13.48;;;;;;;12.55;60.23;99701.55;1991678;89;28760;-66
2022/04/22 10:16:52;;;;;;;15.23;12.50;;;;;;;12.61;60.06;99687.70;1991344;89;31037;-63
2022/04/22 10:20:01;;;;;;;16.27;12.63;;;;;;;12.75;59.93;99685.39;1978814;89;33017;-65
2022/04/22 10:23:10;;;;;;;14.80;12.50;;;;;;;12.92;59.85;99688.28;1991423;89;29379;-66
2022/04/22 10:26:16;;;;;;;14.20;12.18;;;;;;;13.18;59.76;99674.82;1990603;89;28029;-64
2022/04/22 10:29:20;;;;;;;;;;;;;;;13.49;59.14;99672.19;1993285;89;28645;-66
2022/04/22 10:32:27;;;;;;;15.88;13.08;;;;;;;13.81;58.89;99664.95;2046362;86;31017;-66
2022/04/22 10:35:35;;;;;;;16.55;13.72;;;;;;;14.17;58.90;99654.23;2012361;88;33002;-64
2022/04/22 10:38:41;;;;;;;17.05;14.20;;;;;;;14.46;58.36;99648.49;2019833;87;29632;-64
2022/04/22 10:41:48;;;;;;;17.80;13.65;;;;;;;14.82;57.40;99657.41;2048025;86;27872;-65
2022/04/22 10:48:25;;;;;;;18.62;15.28;;;;;;;14.87;57.12;99651.69;2030920;87;31067;-64
2022/04/22 10:51:36;;;;;;;17.00;14.95;;;;;;;15.04;57.01;99651.69;2047811;86;33022;-66
2022/04/22 10:55:02;;;;;;;16.37;14.30;;;;;;;15.16;56.31;99654.77;2010216;88;29761;-63
2022/04/22 10:58:23;;;;;;;20.48;14.53;;;;;;;15.13;55.43;99667.64;2047977;86;27965;-64
2022/04/22 11:01:42;;;;;;;18.92;15.83;;;;;;;15.16;55.92;99651.22;2012632;88;29191;-68
2022/04/22 11:04:48;;;;;;;18.40;15.15;;;;;;;15.30;55.39;99649.63;2030932;86;31227;-64
2022/04/22 11:08:01;;;;;;;18.55;14.45;;;;;;;15.30;54.98;99659.58;2048153;86;33624;-69
2022/04/22 11:11:15;;;;;;;15.98;13.60;;;;;;;15.34;55.25;99651.58;2013423;88;29374;-64
2022/04/22 11:14:27;;;;;;;20.40;13.22;;;;;;;15.24;55.45;99621.77;2031724;87;27943;-65
2022/04/22 11:17:36;;;;;;;16.00;12.78;;;;;;;15.35;54.78;99656.00;2047462;86;28664;-63
2022/04/22 11:20:48;;;;;;;17.00;12.47;;;;;;;15.17;55.18;99659.69;2013262;88;31022;-64
2022/04/22 11:23:54;;;;;;;16.90;13.93;;;;;;;15.14;55.14;99663.46;2032061;86;33093;-64
2022/04/22 11:27:13;;;;;;;24.80;15.35;;;;;;;15.15;54.50;99666.53;2047896;86;29329;-62
2022/04/22 11:30:23;;;;;;;15.28;12.82;;;;;;;15.10;54.87;99657.97;2012337;88;28036;-63
2022/04/22 11:33:29;;;;;;;15.88;13.22;;;;;;;15.09;54.35;99659.42;2047031;86;28719;-66
2022/04/22 11:36:52;;;;;;;14.18;11.33;;;;;;;15.09;54.35;99659.42;2012248;88;31053;-62
2022/04/22 11:39:59;;;;;;;14.15;11.73;;;;;;;15.17;54.57;99650.24;2030358;87;33027;-62
2022/04/22 11:43:14;;;;;;;11.20;9.78;;;;;;;15.26;54.00;99654.89;2047975;86;29348;-62
2022/04/22 11:46:19;;;;;;;14.47;10.40;;;;;;;15.42;54.18;99653.19;2048370;86;27856;-64
2022/04/22 11:49:32;;;;;;;12.28;10.38;;;;;;;15.56;54.01;99649.86;2048022;86;28640;-63
2022/04/22 11:52:40;;;;;;;18.02;12.93;;;;;;;15.55;53.77;99661.16;2013412;88;31041;-67
2022/04/22 11:55:49;;;;;;;11.00;9.78;;;;;;;15.46;53.58;99657.36;2031450;87;32951;-68
2022/04/22 11:58:56;;;;;;;12.40;9.68;;;;;;;15.37;53.07;99669.38;2047951;86;29352;-66
2022/04/22 12:05:33;;;;;;;15.03;12.03;;;;;;;15.02;53.54;99653.17;2031542;86;28850;-62
2022/04/22 12:08:38;;;;;;;13.62;11.55;;;;;;;14.99;53.65;99646.67;2016471;88;31061;-63
2022/04/22 12:11:44;;;;;;;15.05;11.65;;;;;;;14.84;52.98;99654.62;2022553;86;32969;-63
2022/04/22 12:15:01;;;;;;;14.10;12.03;;;;;;;14.59;53.53;99656.47;2051355;86;29318;-65
2022/04/22 12:18:06;;;;;;;17.80;14.47;;;;;;;14.41;53.86;99654.70;2021510;87;27943;-65
2022/04/22 12:21:17;;;;;;;20.80;16.82;;;;;;;14.25;54.50;99668.00;2028566;87;29352;-64
2022/04/22 12:24:21;;;;;;;22.00;18.87;;;;;;;14.12;55.01;99669.40;2052251;86;31077;-66
2022/04/22 12:27:27;;;;;;;22.75;19.25;;;;;;;13.97;55.26;99668.73;2016368;87;33122;-64
2022/04/22 12:30:37;;;;;;;24.30;21.12;;;;;;;13.71;56.09;99677.84;2021389;87;29336;-63
2022/04/22 12:33:44;;;;;;;26.93;22.00;;;;;;;13.71;56.09;99677.84;2051381;86;27953;-63
2022/04/22 12:37:02;;;;;;;29.77;23.05;;;;;;;13.70;56.36;99672.08;1998261;88;29188;-64
2022/04/22 12:40:19;;;;;;;26.02;22.35;;;;;;;13.62;56.57;99668.14;2028964;86;31011;-63
2022/04/22 12:43:34;;;;;;;28.90;22.95;;;;;;;13.49;56.64;99669.97;2050665;86;33012;-62
2022/04/22 12:53:38;;;;;;;28.70;23.60;;;;;;;13.25;57.37;99665.36;2035581;86;28584;-63
2022/04/22 12:56:46;;;;;;;24.47;20.77;;;;;;;13.16;57.28;99664.66;2015568;87;31020;-63
2022/04/22 12:59:57;;;;;;;28.60;20.52;;;;;;;13.09;57.25;99667.41;2027466;86;33068;-63
2022/04/22 13:03:04;;;;;;;25.48;20.95;;;;;;;13.02;57.68;99661.61;2051338;86;29336;-64
2022/04/22 13:06:10;;;;;;;25.12;20.70;;;;;;;13.02;57.79;99658.92;2015525;87;27699;-64
2022/04/22 13:09:18;;;;;;;24.55;21.40;;;;;;;13.06;57.88;99658.59;2029027;86;28675;-63
2022/04/22 13:12:23;;;;;;;25.82;20.57;;;;;;;13.15;57.92;99655.74;2047904;86;31034;-66
2022/04/22 13:15:28;;;;;;;26.40;20.85;;;;;;;13.29;57.96;99652.08;2013068;88;32982;-63
2022/04/22 13:18:33;;;;;;;23.87;20.12;;;;;;;13.39;58.12;99652.28;2051143;86;29340;-64
2022/04/22 13:21:40;;;;;;;23.02;19.12;;;;;;;13.53;57.61;99653.98;2013104;88;27523;-66
2022/04/22 13:24:45;;;;;;;21.25;16.77;;;;;;;13.60;57.35;99660.66;2028238;87;28720;-65
2022/04/22 13:27:50;;;;;;;21.50;17.92;;;;;;;13.61;57.22;99665.07;2046918;86;32088;-65
2022/04/22 13:30:56;;;;;;;22.58;18.15;;;;;;;13.68;56.85;99664.13;2013126;88;32970;-64
2022/04/22 13:34:01;;;;;;;26.60;18.40;;;;;;;13.70;57.12;99664.00;2048792;86;29467;-66
2022/04/22 13:37:07;;;;;;;19.07;17.05;;;;;;;13.73;57.22;99662.44;2012938;87;27946;-70
2022/04/22 13:40:13;;;;;;;21.42;17.75;;;;;;;13.73;57.01;99663.32;2028394;86;28631;-66
2022/04/22 13:43:19;;;;;;;20.25;16.23;;;;;;;13.62;56.84;99660.06;2047539;86;31060;-65
2022/04/22 13:53:13;;;;;;;17.65;15.25;;;;;;;13.54;57.07;99677.23;2031343;86;27982;-64
2022/04/22 13:56:18;;;;;;;16.70;14.57;;;;;;;13.45;56.94;99662.61;2013172;88;28667;-63
2022/04/22 13:59:25;;;;;;;21.10;17.80;;;;;;;13.31;56.95;99658.68;2016083;87;31111;-64
2022/04/22 14:02:32;;;;;;;18.07;15.85;;;;;;;13.12;57.30;99668.55;2047767;86;33120;-64
2022/04/22 14:05:34;;;;;;;18.60;15.05;;;;;;;12.96;57.83;99666.95;2012477;88;29370;-63
2022/04/22 14:08:41;;;;;;;16.00;14.30;;;;;;;12.75;58.15;99680.02;2031008;87;27898;-63
2022/04/22 14:11:46;;;;;;;15.65;14.05;;;;;;;12.58;58.34;99682.53;2047583;86;28662;-64
2022/04/22 14:14:56;;;;;;;13.83;11.70;;;;;;;12.41;58.59;99682.34;2012854;88;31062;-64
2022/04/22 14:18:01;;;;;;;11.68;10.48;;;;;;;12.39;58.85;99679.75;2030687;86;32923;-65
2022/04/22 14:21:06;;;;;;;15.65;11.65;;;;;;;12.33;58.88;99686.02;2047367;86;29331;-64
2022/04/22 14:24:11;;;;;;;11.88;10.45;;;;;;;12.26;59.12;99688.25;2012616;88;27997;-68
2022/04/22 14:27:16;;;;;;;;;;;;;;;12.19;58.98;99690.48;2033324;86;28693;-65
2022/04/22 14:30:21;;;;;;;13.30;10.90;;;;;;;12.09;59.45;99690.70;2047868;86;31143;-65
2022/04/22 14:33:26;;;;;;;11.57;9.73;;;;;;;12.13;59.52;99685.05;2013072;88;32963;-65
2022/04/22 14:36:30;;;;;;;12.05;9.58;;;;;;;12.26;59.39;99678.36;2047782;86;29341;-65
2022/04/22 14:39:38;;;;;;;12.68;9.18;;;;;;;12.30;59.07;99679.88;2047888;86;27931;-66
2022/04/22 14:42:45;;;;;;;11.73;8.60;;;;;;;12.41;59.16;99681.85;2047798;86;28709;-68
2022/04/22 14:45:58;;;;;;;10.78;8.75;;;;;;;12.48;58.81;99683.64;2047819;86;31021;-65
2022/04/22 14:49:06;;;;;;;11.88;7.65;;;;;;;12.53;58.78;99681.98;2047353;86;34201;-65
2022/04/22 14:52:11;;;;;;;10.53;8.65;;;;;;;12.48;58.28;99683.64;2047958;86;29341;-65
2022/04/22 14:55:17;;;;;;;9.88;8.53;;;;;;;12.38;58.46;99689.27;2048111;86;28050;-63
2022/04/22 14:58:20;;;;;;;9.28;8.35;;;;;;;12.28;58.70;99689.86;2048268;86;28807;-65
2022/04/22 15:01:25;;;;;;;9.00;7.65;;;;;;;12.21;58.52;99689.03;2048258;86;31037;-65
2022/04/22 15:04:29;;;;;;;11.20;8.85;;;;;;;12.07;58.60;99685.44;2048323;86;34792;-65
2022/04/22 15:07:36;;;;;;;10.40;8.60;;;;;;;12.03;58.69;99685.75;2048172;86;29372;-59
2022/04/22 15:10:42;;;;;;;11.35;9.13;;;;;;;11.94;58.84;99684.00;2048834;86;27952;-61
2022/04/22 15:13:51;;;;;;;9.58;8.43;;;;;;;11.83;59.01;99681.17;2048587;86;28526;-60
2022/04/22 15:16:56;;;;;;;13.00;9.90;;;;;;;11.81;59.29;99674.57;2048678;86;31127;-60
2022/04/22 15:26:56;;;;;;;13.38;9.98;;;;;;;11.85;59.25;99680.09;2013231;88;27960;-60
2022/04/22 15:30:01;;;;;;;20.08;10.30;;;;;;;11.83;59.21;99677.98;2048571;86;28637;-60
2022/04/22 15:33:06;;;;;;;16.75;10.30;;;;;;;11.81;59.23;99679.06;2048834;86;31093;-60
2022/04/22 15:36:12;;;;;;;;;;;;;;;11.79;59.30;99674.27;2015827;88;32976;-61
2022/04/22 15:39:18;;;;;;;;;;;;;;;11.77;59.28;99675.72;1994620;88;29448;-61
2022/04/22 15:42:30;;;;;;;15.13;9.83;;;;;;;11.77;59.39;99673.50;2048254;86;28004;-61
2022/04/22 15:45:37;;;;;;;12.03;9.78;;;;;;;11.70;59.43;99687.34;2048255;86;29434;-61
2022/04/22 15:48:45;;;;;;;12.05;9.58;;;;;;;11.65;59.49;99681.89;2048669;86;31013;-60